Time;durP1;ratioP1;P1;durP2;ratioP2;P2;SDS_P1;SDS_P2;PMS_P1;PMS_P2;Temp;Humidity;BMP_temperature;BMP_pressure;BME280_temperature;BME280_humidity;BME280_pressure;Samples;Min_cycle;Max_cycle;Signal;HPM_P1;HPM_P2
2022/10/08 00:01:13;;;;;;;8.20;2.13;;;;;;;17.29;50.74;101483.81;5032890;28;20045;-67
2022/10/08 00:03:57;;;;;;;8.55;2.45;;;;;;;17.31;50.63;101483.69;5036632;28;20419;-67
2022/10/08 00:06:29;;;;;;;9.82;2.92;;;;;;;17.32;50.66;101483.56;5053072;28;20037;-68
2022/10/08 00:08:58;;;;;;;7.78;2.42;;;;;;;17.32;50.59;101479.97;5053446;28;20065;-67
2022/10/08 00:11:28;;;;;;;8.98;2.75;;;;;;;17.33;50.75;101484.41;5053436;28;20453;-67
2022/10/08 00:13:56;;;;;;;7.53;2.33;;;;;;;17.30;50.83;101482.81;5052160;28;20392;-68
2022/10/08 00:16:26;;;;;;;11.55;2.50;;;;;;;17.30;50.89;101485.53;5053398;28;20487;-68
2022/10/08 00:18:56;;;;;;;7.38;2.58;;;;;;;17.32;50.83;101497.13;5053242;28;20045;-67
2022/10/08 00:21:26;;;;;;;6.57;2.42;;;;;;;17.33;50.62;101489.84;5051786;28;20726;-68
2022/10/08 00:23:57;;;;;;;6.75;2.40;;;;;;;17.34;50.78;101486.13;5053250;28;20037;-68
2022/10/08 00:26:26;;;;;;;11.00;2.38;;;;;;;17.36;50.98;101492.28;5053167;28;20041;-67
2022/10/08 00:28:55;;;;;;;11.73;2.78;;;;;;;17.37;50.80;101491.28;5053359;28;20446;-68
2022/10/08 00:31:24;;;;;;;6.22;2.30;;;;;;;17.36;50.85;101495.00;5053273;28;20099;-67
2022/10/08 00:33:56;;;;;;;8.57;3.17;;;;;;;17.36;50.80;101489.56;5051694;28;20435;-68
2022/10/08 00:36:25;;;;;;;10.10;2.80;;;;;;;17.37;51.05;101485.84;5051798;28;20045;-67
2022/10/08 00:39:00;;;;;;;8.38;2.35;;;;;;;17.36;51.07;101478.69;5038301;28;20099;-67
2022/10/08 00:41:29;;;;;;;6.30;2.60;;;;;;;17.35;51.07;101475.13;5033529;28;20056;-67
2022/10/08 00:44:22;;;;;;;8.50;2.72;;;;;;;17.36;51.13;101481.41;5032508;28;20034;-67
2022/10/08 00:46:49;;;;;;;8.52;2.33;;;;;;;17.37;51.04;101477.72;5031902;28;20041;-67
2022/10/08 00:49:20;;;;;;;13.77;2.45;;;;;;;17.36;51.01;101473.28;5032229;28;20484;-68
2022/10/08 00:51:51;;;;;;;6.05;2.20;;;;;;;17.38;51.04;101482.16;5032047;28;20048;-67
2022/10/08 00:54:19;;;;;;;7.57;2.42;;;;;;;17.36;50.96;101493.13;5042027;28;20036;-67
2022/10/08 00:56:50;;;;;;;8.10;2.50;;;;;;;17.37;50.90;101488.56;5051884;28;20507;-67
2022/10/08 00:59:17;;;;;;;7.32;2.33;;;;;;;17.38;51.21;101484.84;5051899;28;20048;-68
2022/10/08 01:01:43;;;;;;;6.05;2.45;;;;;;;17.41;51.32;101490.88;5050299;28;20122;-67
2022/10/08 01:04:15;;;;;;;8.00;2.70;;;;;;;17.42;51.09;101498.03;5050442;28;20110;-67
2022/10/08 01:06:53;;;;;;;8.93;2.40;;;;;;;17.45;50.92;101495.03;5049925;28;20118;-67
2022/10/08 01:09:30;;;;;;;8.18;2.40;;;;;;;17.46;51.42;101490.47;5051876;28;20095;-67
2022/10/08 01:12:08;;;;;;;10.73;3.15;;;;;;;17.47;51.29;101497.59;5051607;28;20090;-67
2022/10/08 01:14:40;;;;;;;8.18;2.70;;;;;;;17.50;51.43;101496.47;5050539;28;20052;-67
2022/10/08 01:17:29;;;;;;;7.72;2.80;;;;;;;17.48;51.45;101497.47;5051570;28;20090;-66
2022/10/08 01:20:04;;;;;;;6.43;2.67;;;;;;;17.50;51.61;101491.91;5043966;28;20071;-67
2022/10/08 01:23:06;;;;;;;10.00;2.83;;;;;;;17.50;51.15;101501.91;5030364;28;20488;-67
2022/10/08 01:26:15;;;;;;;10.05;2.80;;;;;;;17.50;51.61;101504.63;5032791;28;20046;-68
2022/10/08 01:28:46;;;;;;;11.50;2.55;;;;;;;17.51;51.41;101507.19;5030587;28;20153;-67
2022/10/08 01:31:38;;;;;;;8.65;2.75;;;;;;;17.50;51.58;101505.47;5031548;28;20096;-67
2022/10/08 01:34:11;;;;;;;7.88;3.30;;;;;;;17.51;51.90;101504.47;5044102;28;20120;-67
2022/10/08 01:36:44;;;;;;;8.32;2.75;;;;;;;17.51;51.56;101501.75;5051398;28;20087;-67
2022/10/08 01:39:18;;;;;;;8.32;3.13;;;;;;;17.52;51.90;101502.63;5051480;28;20158;-67
2022/10/08 01:41:51;;;;;;;8.40;3.40;;;;;;;17.53;51.83;101498.91;5043937;28;20045;-67
2022/10/08 01:44:45;;;;;;;10.35;3.35;;;;;;;17.51;52.43;101501.75;5030734;28;20046;-67
2022/10/08 01:47:16;;;;;;;13.80;3.50;;;;;;;17.53;52.00;101513.34;5029881;28;20049;-67
2022/10/08 01:49:50;;;;;;;14.80;3.80;;;;;;;17.51;52.28;101518.06;5042506;28;20045;-67
2022/10/08 01:52:21;;;;;;;9.90;3.95;;;;;;;17.48;52.65;101516.47;5043863;28;20099;-68
2022/10/08 01:54:54;;;;;;;10.77;4.10;;;;;;;17.45;52.58;101522.19;5051262;28;20041;-68
2022/10/08 01:57:23;;;;;;;11.82;4.00;;;;;;;17.42;52.96;101506.16;5051148;28;20045;-69
2022/10/08 01:59:55;;;;;;;6.97;4.05;;;;;;;17.41;53.02;101506.31;5051280;28;20238;-69
2022/10/08 02:02:24;;;;;;;10.07;4.10;;;;;;;17.38;53.25;101509.28;5051041;28;20110;-69
2022/10/08 02:04:54;;;;;;;13.32;4.68;;;;;;;17.37;53.21;101507.56;5036597;28;20116;-68
2022/10/08 02:07:28;;;;;;;7.22;3.95;;;;;;;17.36;53.68;101511.28;5031329;28;20049;-69
2022/10/08 02:10:13;;;;;;;8.05;4.57;;;;;;;17.36;54.05;101516.72;5035984;28;20037;-69
2022/10/08 02:12:41;;;;;;;7.50;4.03;;;;;;;17.36;53.67;101519.44;5049949;28;20033;-68
2022/10/08 02:15:41;;;;;;;10.52;3.65;;;;;;;17.34;53.78;101519.56;5052319;28;20296;-69
2022/10/08 02:18:15;;;;;;;5.65;3.42;;;;;;;17.38;54.17;101525.59;5042165;28;20573;-69
2022/10/08 02:20:51;;;;;;;10.35;4.97;;;;;;;17.39;53.96;101536.31;5049689;28;20053;-69
2022/10/08 02:23:24;;;;;;;9.55;3.72;;;;;;;17.38;54.07;101529.16;5050952;28;20037;-69
2022/10/08 02:26:08;;;;;;;8.57;3.85;;;;;;;17.35;54.20;101525.84;5051595;28;20565;-69
2022/10/08 02:28:45;;;;;;;12.60;5.35;;;;;;;17.33;54.36;101527.84;5052997;28;20044;-68
2022/10/08 02:31:20;;;;;;;9.98;4.10;;;;;;;17.32;54.41;101528.84;5051995;28;20045;-68
2022/10/08 02:33:54;;;;;;;;;;;;;;;17.32;54.41;101526.13;5052655;28;20037;-68
2022/10/08 02:36:27;;;;;;;9.15;4.10;;;;;;;17.34;54.35;101525.00;5048151;28;20382;-68
2022/10/08 02:38:57;;;;;;;11.07;4.07;;;;;;;17.32;54.29;101529.72;5054047;28;20501;-68
2022/10/08 02:41:33;;;;;;;13.40;4.55;;;;;;;17.31;54.81;101519.84;5053844;28;20131;-67
2022/10/08 02:44:05;;;;;;;9.05;4.10;;;;;;;17.31;54.74;101518.97;5052677;28;20041;-68
2022/10/08 02:46:36;;;;;;;10.23;4.40;;;;;;;17.28;54.96;101522.81;5044775;28;20107;-67
2022/10/08 02:49:35;;;;;;;6.90;3.60;;;;;;;17.25;55.10;101522.25;5031106;28;20041;-68
2022/10/08 02:52:05;;;;;;;12.80;4.05;;;;;;;17.25;55.12;101523.09;5030411;28;20107;-68
2022/10/08 02:54:37;;;;;;;9.02;3.90;;;;;;;17.24;54.89;101517.81;5033262;28;20415;-68
2022/10/08 02:57:20;;;;;;;5.95;3.40;;;;;;;17.22;55.59;101517.94;5034453;28;20474;-68
2022/10/08 02:59:47;;;;;;;6.97;3.55;;;;;;;17.23;55.02;101518.81;5036214;28;20041;-68
2022/10/08 03:02:21;;;;;;;6.65;3.08;;;;;;;17.22;55.56;101514.38;5036003;28;20096;-68
2022/10/08 03:04:57;;;;;;;9.07;3.17;;;;;;;17.22;55.53;101517.09;5035447;28;20422;-68
2022/10/08 03:07:27;;;;;;;10.30;3.40;;;;;;;17.21;55.40;101521.66;5036309;28;20511;-67
2022/10/08 03:09:56;;;;;;;10.27;2.42;;;;;;;17.21;55.71;101523.50;5041403;28;20041;-68
2022/10/08 03:12:24;;;;;;;6.85;2.95;;;;;;;17.21;55.76;101524.38;5054717;28;20044;-68
2022/10/08 03:14:55;;;;;;;4.65;2.60;;;;;;;17.22;55.39;101528.81;5058254;28;20110;-68
2022/10/08 03:17:37;;;;;;;6.78;2.67;;;;;;;17.22;55.66;101526.09;5055980;28;20080;-68
2022/10/08 03:20:05;;;;;;;4.55;2.30;;;;;;;17.21;55.57;101518.94;5035040;28;20562;-68
2022/10/08 03:22:32;;;;;;;6.95;2.75;;;;;;;17.22;55.46;101527.94;5033758;28;20076;-69
2022/10/08 03:25:02;;;;;;;6.68;2.17;;;;;;;17.22;55.85;101533.38;5033606;28;20480;-67
2022/10/08 03:27:29;;;;;;;5.60;2.38;;;;;;;17.20;55.43;101536.22;5035226;28;20456;-68
2022/10/08 03:29:56;;;;;;;6.35;2.60;;;;;;;17.18;55.47;101543.63;5033829;28;20124;-68
2022/10/08 03:32:24;;;;;;;6.38;2.30;;;;;;;17.14;55.81;101545.75;5033893;28;20522;-67
2022/10/08 03:34:55;;;;;;;9.57;2.40;;;;;;;17.12;55.91;101545.03;5032819;28;20099;-68
2022/10/08 03:37:21;;;;;;;6.93;2.20;;;;;;;17.10;55.52;101543.44;5032542;28;20080;-68
2022/10/08 03:39:48;;;;;;;5.05;1.90;;;;;;;17.09;55.81;101545.31;5049093;28;20049;-67
2022/10/08 03:42:14;;;;;;;6.75;2.30;;;;;;;17.07;55.56;101547.25;5037622;28;20424;-68
2022/10/08 03:44:44;;;;;;;6.15;2.35;;;;;;;17.05;55.85;101545.69;5053915;28;20056;-67
2022/10/08 03:47:10;;;;;;;5.93;1.90;;;;;;;17.04;55.86;101554.81;5052532;28;20045;-67
2022/10/08 03:49:37;;;;;;;3.55;1.90;;;;;;;17.02;55.83;101552.22;5052881;28;20053;-67
2022/10/08 03:52:03;;;;;;;4.47;1.83;;;;;;;17.01;56.09;101557.78;5053192;28;20044;-68
2022/10/08 03:54:34;;;;;;;4.55;2.30;;;;;;;16.99;56.01;101555.22;5053155;28;20462;-68
2022/10/08 03:57:02;;;;;;;7.00;2.05;;;;;;;16.99;55.75;101557.91;5055354;28;20037;-68
2022/10/08 03:59:28;;;;;;;6.38;2.05;;;;;;;16.98;55.86;101564.34;5044164;28;20045;-68
2022/10/08 04:01:55;;;;;;;9.45;2.22;;;;;;;16.99;56.07;101568.78;5034835;28;20119;-68
2022/10/08 04:04:26;;;;;;;7.35;2.15;;;;;;;17.00;56.13;101567.78;5035531;28;20116;-68
2022/10/08 04:06:52;;;;;;;5.90;1.98;;;;;;;16.99;55.58;101563.34;5035291;28;20088;-67
2022/10/08 04:09:19;;;;;;;7.20;1.95;;;;;;;16.96;55.76;101563.63;5036022;28;20042;-67
2022/10/08 04:11:45;;;;;;;4.95;2.25;;;;;;;16.94;55.77;101567.47;5035062;28;20041;-68
2022/10/08 04:14:13;;;;;;;8.23;2.22;;;;;;;16.91;55.86;101568.59;5036238;28;20478;-67
2022/10/08 04:16:39;;;;;;;5.88;2.00;;;;;;;16.88;55.60;101568.84;5037022;28;20038;-67
2022/10/08 04:19:06;;;;;;;6.22;2.17;;;;;;;16.83;55.85;101571.09;5034174;28;20041;-67
2022/10/08 04:21:32;;;;;;;6.43;1.98;;;;;;;16.80;55.62;101576.78;5032141;28;20449;-67
2022/10/08 04:24:01;;;;;;;3.35;1.80;;;;;;;16.74;55.98;101571.88;5043555;28;20095;-67
2022/10/08 04:26:27;;;;;;;7.45;2.08;;;;;;;16.70;55.55;101582.13;5053377;28;20064;-68
2022/10/08 04:28:54;;;;;;;6.80;2.03;;;;;;;16.67;55.65;101582.41;5052882;28;20107;-67
2022/10/08 04:31:22;;;;;;;7.75;2.47;;;;;;;16.65;55.78;101589.81;5051119;28;20045;-67
2022/10/08 04:34:14;;;;;;;6.28;2.25;;;;;;;16.59;55.89;101584.88;5033030;28;20045;-68
2022/10/08 04:36:40;;;;;;;5.18;2.03;;;;;;;16.56;55.84;101577.00;5032555;28;20115;-67
2022/10/08 04:39:07;;;;;;;5.97;2.05;;;;;;;16.54;56.20;101595.25;5032563;28;20442;-68
2022/10/08 04:41:33;;;;;;;6.78;3.25;;;;;;;16.53;56.12;101590.81;5032320;28;20119;-67
2022/10/08 04:44:02;;;;;;;3.85;2.30;;;;;;;16.52;55.82;101589.94;5033038;28;20065;-67
2022/10/08 04:46:28;;;;;;;8.02;2.75;;;;;;;16.48;55.85;101596.63;5034326;28;20101;-67
2022/10/08 04:48:55;;;;;;;7.72;2.38;;;;;;;16.46;55.80;101595.88;5036175;28;20041;-67
2022/10/08 04:51:24;;;;;;;5.78;2.40;;;;;;;16.42;56.07;101605.28;5034027;28;20057;-68
2022/10/08 04:54:00;;;;;;;6.22;2.00;;;;;;;16.37;55.83;101604.78;5034367;28;20045;-68
2022/10/08 04:56:30;;;;;;;5.82;2.80;;;;;;;16.35;55.98;101605.88;5034539;28;20041;-67
2022/10/08 04:58:58;;;;;;;5.50;3.17;;;;;;;16.30;56.36;101606.25;5035463;28;20068;-67
2022/10/08 05:01:26;;;;;;;8.05;3.17;;;;;;;16.27;56.39;101611.06;5034337;28;20073;-67
2022/10/08 05:03:58;;;;;;;7.95;4.85;;;;;;;16.23;56.63;101615.88;5033240;28;20038;-67
2022/10/08 05:06:28;;;;;;;7.05;5.10;;;;;;;16.20;56.70;101625.13;5054084;28;20057;-67
2022/10/08 05:08:57;;;;;;;11.77;6.00;;;;;;;16.20;57.01;101618.84;5054075;28;20041;-67
2022/10/08 05:11:25;;;;;;;13.27;7.30;;;;;;;16.18;56.94;101624.41;5052674;28;20059;-67
2022/10/08 05:13:56;;;;;;;12.50;7.45;;;;;;;16.16;57.27;101625.50;5052858;28;20037;-68
2022/10/08 05:16:24;;;;;;;15.57;8.05;;;;;;;16.16;57.18;101630.94;5051504;28;20463;-68
2022/10/08 05:18:51;;;;;;;17.30;9.65;;;;;;;16.15;57.54;101635.50;5051969;28;20458;-67
2022/10/08 05:21:21;;;;;;;14.93;9.93;;;;;;;16.14;57.81;101622.06;5045583;28;20052;-66
2022/10/08 05:24:08;;;;;;;16.13;10.88;;;;;;;16.15;58.14;101629.22;5032186;28;20038;-66
2022/10/08 05:26:37;;;;;;;17.52;11.68;;;;;;;16.17;57.85;101632.66;5047642;28;20045;-67
2022/10/08 05:29:24;;;;;;;20.27;12.15;;;;;;;16.16;57.92;101639.06;5032465;28;20041;-67
2022/10/08 05:31:50;;;;;;;22.15;11.68;;;;;;;16.15;58.14;101642.75;5032311;28;20033;-67
2022/10/08 05:34:18;;;;;;;17.17;11.75;;;;;;;16.14;58.47;101644.59;5032363;28;20389;-67
2022/10/08 05:36:45;;;;;;;20.35;12.77;;;;;;;16.14;58.52;101646.47;5032000;28;20116;-66
2022/10/08 05:39:11;;;;;;;21.77;13.65;;;;;;;16.14;58.31;101644.59;5048182;28;20434;-67
2022/10/08 05:41:38;;;;;;;22.58;14.35;;;;;;;16.15;58.66;101654.47;5052054;28;20103;-66
2022/10/08 05:44:09;;;;;;;23.40;14.50;;;;;;;16.17;59.01;101662.47;5052538;28;20103;-66
2022/10/08 05:46:37;;;;;;;22.85;14.52;;;;;;;16.17;58.97;101668.75;5052222;28;20045;-66
2022/10/08 05:49:07;;;;;;;22.58;15.32;;;;;;;16.18;58.85;101662.34;5052342;28;20048;-66
2022/10/08 05:51:35;;;;;;;28.63;15.68;;;;;;;16.20;58.93;101670.34;5052370;28;20055;-67
2022/10/08 05:54:04;;;;;;;24.05;15.27;;;;;;;16.23;58.99;101680.06;5052296;28;20376;-66
2022/10/08 05:56:31;;;;;;;27.20;16.52;;;;;;;16.23;58.78;101680.94;5033528;28;20041;-67
2022/10/08 05:58:57;;;;;;;26.08;16.40;;;;;;;16.23;59.07;101680.06;5032393;28;20042;-67
2022/10/08 06:01:30;;;;;;;26.40;17.98;;;;;;;16.25;59.08;101684.38;5032449;28;20096;-67
2022/10/08 06:04:02;;;;;;;30.00;17.73;;;;;;;16.26;59.30;101690.66;5030911;28;20050;-67
2022/10/08 06:06:35;;;;;;;30.52;18.77;;;;;;;16.27;59.10;101695.09;5031810;28;20577;-67
2022/10/08 06:09:02;;;;;;;27.75;18.25;;;;;;;16.28;59.40;101694.97;5032042;28;20037;-67
2022/10/08 06:11:31;;;;;;;31.77;18.75;;;;;;;16.30;59.10;101695.72;5038394;28;20037;-67
2022/10/08 06:14:00;;;;;;;28.92;19.05;;;;;;;16.33;59.47;101705.44;5034425;28;20045;-67
2022/10/08 06:16:28;;;;;;;34.25;21.33;;;;;;;16.34;59.24;101709.88;5052747;28;20041;-68
2022/10/08 06:18:55;;;;;;;37.03;20.85;;;;;;;16.34;59.24;101716.16;5052833;28;20037;-68
2022/10/08 06:21:24;;;;;;;33.42;21.63;;;;;;;16.36;59.27;101721.50;5052469;28;20049;-67
2022/10/08 06:24:00;;;;;;;49.63;22.55;;;;;;;16.36;59.53;101722.34;5052363;28;20049;-68
2022/10/08 06:26:31;;;;;;;34.40;22.77;;;;;;;16.37;59.34;101720.50;5051640;28;20136;-67
2022/10/08 06:29:04;;;;;;;37.63;22.17;;;;;;;16.38;59.18;101728.50;5039703;28;20048;-67
2022/10/08 06:31:30;;;;;;;35.00;22.45;;;;;;;16.40;59.39;101740.09;5035456;28;20053;-67
2022/10/08 06:34:03;;;;;;;41.88;22.88;;;;;;;16.43;59.51;101741.69;5035593;28;20041;-68
2022/10/08 06:36:31;;;;;;;38.78;22.40;;;;;;;16.43;59.56;101737.13;5036357;28;20050;-67
2022/10/08 06:39:01;;;;;;;42.92;24.23;;;;;;;16.46;59.42;101746.88;5037052;28;20049;-66
2022/10/08 06:41:34;;;;;;;41.95;24.45;;;;;;;16.46;59.38;101745.00;5036054;28;20439;-68
2022/10/08 06:44:11;;;;;;;37.28;23.33;;;;;;;16.48;59.13;101751.16;5039084;28;20049;-68
2022/10/08 06:46:37;;;;;;;36.05;22.85;;;;;;;16.49;59.33;101754.75;5055237;28;20056;-68
2022/10/08 06:49:05;;;;;;;40.13;24.75;;;;;;;16.50;59.35;101757.34;5056315;28;20384;-68
2022/10/08 06:51:33;;;;;;;35.22;22.67;;;;;;;16.51;59.53;101752.78;5055473;28;20087;-68
2022/10/08 06:54:01;;;;;;;39.08;24.33;;;;;;;16.53;59.16;101758.94;5056267;28;20040;-67
2022/10/08 06:56:34;;;;;;;39.33;23.75;;;;;;;16.55;59.43;101767.81;5055748;28;20443;-68
2022/10/08 06:59:02;;;;;;;41.42;23.85;;;;;;;16.59;59.57;101771.13;5055445;28;20041;-67
2022/10/08 07:01:28;;;;;;;36.88;23.90;;;;;;;16.63;59.22;101778.03;5052682;28;20036;-68
2022/10/08 07:04:02;;;;;;;38.30;23.77;;;;;;;16.66;59.20;101789.50;5054685;28;20037;-67
2022/10/08 07:06:29;;;;;;;39.22;24.13;;;;;;;16.70;59.34;101785.56;5055686;28;20458;-67
2022/10/08 07:08:58;;;;;;;40.00;22.40;;;;;;;16.75;59.72;101786.06;5055140;28;20040;-68
2022/10/08 07:11:26;;;;;;;38.30;22.42;;;;;;;16.83;59.44;101799.84;5053554;28;20041;-70
2022/10/08 07:13:57;;;;;;;30.67;20.95;;;;;;;16.91;59.50;101798.34;5053537;28;20546;-68
2022/10/08 07:16:25;;;;;;;36.38;21.77;;;;;;;17.01;59.72;101807.44;5056685;28;20060;-68
2022/10/08 07:18:54;;;;;;;36.33;21.30;;;;;;;17.10;59.58;101813.00;5055948;28;20110;-67
2022/10/08 07:21:21;;;;;;;32.97;21.95;;;;;;;17.20;59.49;101812.25;5056660;28;20044;-67
2022/10/08 07:23:50;;;;;;;32.63;21.27;;;;;;;17.27;59.51;101827.88;5056902;28;20045;-68
2022/10/08 07:26:24;;;;;;;34.40;20.88;;;;;;;17.31;58.95;101820.34;5056688;28;20179;-68
2022/10/08 07:28:57;;;;;;;34.20;19.58;;;;;;;17.35;58.92;101825.38;5052139;28;20537;-67
2022/10/08 07:31:28;;;;;;;32.42;21.73;;;;;;;17.39;59.01;101828.72;5053859;28;20041;-68
2022/10/08 07:34:01;;;;;;;37.17;21.23;;;;;;;17.44;58.73;101837.31;5053791;28;20040;-68
2022/10/08 07:36:28;;;;;;;33.67;19.80;;;;;;;17.46;58.80;101835.34;5048938;28;20050;-67
2022/10/08 07:38:57;;;;;;;36.15;20.30;;;;;;;17.49;58.88;101840.53;5033585;28;20099;-67
2022/10/08 07:41:24;;;;;;;32.00;19.77;;;;;;;17.55;58.86;101847.28;5032531;28;20123;-67
2022/10/08 07:43:59;;;;;;;30.85;19.80;;;;;;;17.57;59.10;101846.16;5033215;28;20484;-68
2022/10/08 07:46:27;;;;;;;33.08;19.33;;;;;;;17.63;58.96;101852.94;5031985;28;20041;-67
2022/10/08 07:48:57;;;;;;;29.85;17.92;;;;;;;17.68;58.72;101854.28;5033505;28;20045;-67
2022/10/08 07:51:25;;;;;;;27.35;18.15;;;;;;;17.78;59.09;101862.53;5032715;28;20083;-68
2022/10/08 07:53:53;;;;;;;38.67;18.98;;;;;;;17.85;58.83;101862.91;5032635;28;20038;-68
2022/10/08 07:56:27;;;;;;;25.38;16.55;;;;;;;17.94;58.94;101862.97;5032908;28;20068;-67
2022/10/08 07:58:53;;;;;;;25.38;16.13;;;;;;;18.05;58.64;101864.75;5032830;28;20111;-68
2022/10/08 08:01:27;;;;;;;27.73;15.80;;;;;;;18.17;58.43;101871.84;5031249;28;20042;-67
2022/10/08 08:04:00;;;;;;;25.52;14.95;;;;;;;18.30;58.19;101869.78;5032696;28;20138;-68
2022/10/08 08:06:29;;;;;;;24.27;13.77;;;;;;;18.42;58.47;101862.41;5032615;28;20053;-68
2022/10/08 08:08:56;;;;;;;22.73;13.13;;;;;;;18.56;57.99;101869.34;5032602;28;20049;-68
2022/10/08 08:11:23;;;;;;;20.98;12.70;;;;;;;18.67;58.00;101864.72;5048076;28;20504;-67
2022/10/08 08:13:52;;;;;;;21.13;11.45;;;;;;;18.78;57.76;101874.66;5031900;28;20056;-66
2022/10/08 08:16:24;;;;;;;20.75;12.45;;;;;;;18.88;57.53;101878.28;5031296;28;20038;-67
2022/10/08 08:18:53;;;;;;;13.40;9.20;;;;;;;18.99;56.98;101877.31;5040119;28;20092;-67
2022/10/08 08:21:23;;;;;;;17.05;10.05;;;;;;;19.10;56.91;101884.50;5052601;28;20041;-67
2022/10/08 08:23:55;;;;;;;13.65;5.97;;;;;;;19.17;56.20;101888.38;5053161;28;20643;-67
2022/10/08 08:26:24;;;;;;;10.43;5.80;;;;;;;19.19;56.13;101889.13;5053383;28;20387;-66
2022/10/08 08:28:52;;;;;;;8.95;4.70;;;;;;;19.23;55.60;101893.28;5052751;28;20033;-67
2022/10/08 08:31:24;;;;;;;8.63;4.80;;;;;;;19.31;55.57;101896.16;5036130;28;20111;-68
2022/10/08 08:33:57;;;;;;;8.93;4.47;;;;;;;19.39;55.41;101904.53;5033001;28;20506;-68
2022/10/08 08:36:33;;;;;;;7.63;3.53;;;;;;;19.51;54.91;101897.94;5031820;28;20048;-67
2022/10/08 08:39:00;;;;;;;7.93;4.00;;;;;;;19.62;54.82;101907.88;5031856;28;20111;-67
2022/10/08 08:41:55;;;;;;;9.40;2.80;;;;;;;19.65;54.01;101911.19;5031915;28;20039;-67
2022/10/08 08:44:39;;;;;;;7.13;2.78;;;;;;;19.69;53.78;101906.31;5030523;28;20470;-69
2022/10/08 08:47:29;;;;;;;6.57;2.67;;;;;;;19.76;53.25;101917.50;5030520;28;20119;-68
2022/10/08 08:50:07;;;;;;;5.10;2.22;;;;;;;19.78;53.26;101926.41;5030985;28;20103;-68
2022/10/08 08:52:38;;;;;;;6.55;2.25;;;;;;;19.80;52.99;101925.25;5036945;28;20447;-67
2022/10/08 08:55:18;;;;;;;5.63;2.30;;;;;;;19.80;52.37;101924.41;5045318;28;20045;-67
2022/10/08 08:58:02;;;;;;;6.75;1.60;;;;;;;19.78;52.18;101924.53;5044376;28;20053;-67
2022/10/08 09:00:35;;;;;;;6.47;2.20;;;;;;;19.74;51.83;101925.81;5031924;28;20042;-68
2022/10/08 09:03:09;;;;;;;5.18;1.70;;;;;;;19.70;51.45;101927.13;5031504;28;20045;-68
2022/10/08 09:05:44;;;;;;;5.28;1.60;;;;;;;19.66;51.49;101931.13;5033595;28;20102;-68
2022/10/08 09:08:22;;;;;;;5.35;1.73;;;;;;;19.70;51.72;101934.44;5048944;28;20075;-67
2022/10/08 09:11:01;;;;;;;4.40;1.30;;;;;;;19.75;51.20;101937.59;5054602;28;20045;-69
2022/10/08 09:13:35;;;;;;;5.97;1.13;;;;;;;19.83;51.13;101952.22;5053711;28;20107;-68
2022/10/08 09:16:03;;;;;;;4.45;1.88;;;;;;;19.88;50.62;101947.22;5054802;28;20040;-68
2022/10/08 09:18:30;;;;;;;9.82;1.70;;;;;;;19.89;50.42;101948.94;5040420;28;20384;-68
2022/10/08 09:20:57;;;;;;;7.35;1.50;;;;;;;19.89;50.43;101950.81;5033822;28;20103;-68
2022/10/08 09:23:25;;;;;;;5.50;1.42;;;;;;;19.90;50.11;101960.69;5036303;28;20158;-68
2022/10/08 09:26:02;;;;;;;7.45;1.65;;;;;;;19.95;50.05;101958.41;5033377;28;20038;-67
2022/10/08 09:28:45;;;;;;;6.82;1.27;;;;;;;19.97;49.77;101972.75;5031765;28;20045;-68
2022/10/08 09:31:28;;;;;;;7.38;1.95;;;;;;;20.02;49.88;101975.91;5033913;28;20037;-67
2022/10/08 09:34:16;;;;;;;9.05;1.35;;;;;;;20.12;49.92;101973.22;5032185;28;20046;-70
2022/10/08 09:37:01;;;;;;;2.60;0.77;;;;;;;20.18;49.60;101970.78;5032125;28;20498;-69
2022/10/08 09:39:31;;;;;;;4.53;1.40;;;;;;;20.26;49.56;101984.56;5031403;28;20088;-68
2022/10/08 09:42:06;;;;;;;5.47;1.40;;;;;;;20.25;49.16;101988.28;5031016;28;20038;-68
2022/10/08 09:44:49;;;;;;;7.13;1.23;;;;;;;20.20;48.80;101992.47;5031679;28;20091;-69
2022/10/08 09:47:19;;;;;;;5.47;1.40;;;;;;;20.10;48.41;101992.47;5033677;28;20045;-68
2022/10/08 09:50:01;;;;;;;4.53;1.40;;;;;;;19.97;48.22;101994.56;5030764;28;20049;-69
2022/10/08 09:52:28;;;;;;;6.10;1.20;;;;;;;19.85;48.02;101995.72;5030771;28;20439;-69
2022/10/08 09:55:07;;;;;;;3.42;1.02;;;;;;;19.78;47.89;102003.59;5032816;28;20076;-69
2022/10/08 09:57:42;;;;;;;4.95;1.20;;;;;;;19.71;47.76;102007.03;5034308;28;20072;-69
2022/10/08 10:00:27;;;;;;;;;;;;;;;19.64;48.00;102025.78;5033245;28;20068;-69
2022/10/08 10:02:56;;;;;;;6.00;1.42;;;;;;;19.62;48.26;102025.94;5033479;28;19921;-69
2022/10/08 10:05:28;;;;;;;6.13;1.30;;;;;;;19.60;47.81;102021.63;5037690;28;20548;-69
2022/10/08 10:07:55;;;;;;;4.22;1.23;;;;;;;19.66;48.25;102015.63;5035531;28;20042;-69
2022/10/08 10:10:35;;;;;;;6.07;1.60;;;;;;;19.77;48.30;102020.09;5034953;28;20052;-69
2022/10/08 10:13:09;;;;;;;4.82;1.42;;;;;;;19.92;47.68;102016.81;5034537;28;20079;-68
2022/10/08 10:16:01;;;;;;;6.43;1.17;;;;;;;20.07;47.44;102010.97;5039529;28;20508;-68
2022/10/08 10:18:33;;;;;;;6.07;1.35;;;;;;;20.21;47.31;102016.00;5056924;28;20063;-69
2022/10/08 10:21:04;;;;;;;5.43;1.20;;;;;;;20.34;47.46;102013.00;5056528;28;20449;-69
2022/10/08 10:23:40;;;;;;;5.03;1.30;;;;;;;20.45;46.70;102018.31;5056554;28;20495;-69
2022/10/08 10:26:12;;;;;;;4.35;0.93;;;;;;;20.53;46.26;102013.88;5051285;28;20072;-69
2022/10/08 10:28:51;;;;;;;4.75;1.30;;;;;;;20.61;46.08;102019.47;5036376;28;20084;-69
2022/10/08 10:31:22;;;;;;;2.47;0.82;;;;;;;20.72;45.79;102018.44;5037785;28;20099;-69
2022/10/08 10:34:01;;;;;;;3.00;1.23;;;;;;;20.83;45.91;102022.91;5039573;28;20087;-69
2022/10/08 10:36:36;;;;;;;6.78;1.25;;;;;;;21.00;45.93;102026.72;5037266;28;20046;-69
2022/10/08 10:39:16;;;;;;;2.47;0.97;;;;;;;21.18;45.39;102017.59;5036070;28;20041;-69
2022/10/08 10:41:53;;;;;;;7.88;2.00;;;;;;;21.31;45.20;102028.22;5035114;28;20037;-69
2022/10/08 10:44:32;;;;;;;8.00;1.35;;;;;;;21.42;45.00;102021.72;5035194;28;20046;-69
2022/10/08 10:47:00;;;;;;;6.78;1.20;;;;;;;21.51;44.56;102023.53;5036017;28;20045;-69
2022/10/08 10:49:37;;;;;;;6.63;1.10;;;;;;;21.55;44.51;102025.84;5035056;28;20534;-70
2022/10/08 10:52:03;;;;;;;6.03;1.25;;;;;;;21.63;44.09;102029.69;5034641;28;20053;-70
2022/10/08 10:55:05;;;;;;;7.03;1.27;;;;;;;21.63;43.65;102026.97;5034900;28;20102;-70
2022/10/08 10:57:57;;;;;;;4.03;0.85;;;;;;;21.63;43.23;102033.28;5035002;28;20500;-69
2022/10/08 11:00:31;;;;;;;6.38;1.45;;;;;;;21.64;43.07;102025.94;5034938;28;20503;-70
2022/10/08 11:03:06;;;;;;;4.15;1.10;;;;;;;21.64;42.95;102032.28;5034841;28;20479;-69
2022/10/08 11:05:39;;;;;;;3.65;1.35;;;;;;;21.64;42.74;102037.75;5035036;28;20049;-70
2022/10/08 11:08:18;;;;;;;4.88;1.38;;;;;;;21.65;42.53;102033.13;5034742;28;20057;-70
2022/10/08 11:10:55;;;;;;;3.28;1.00;;;;;;;21.68;42.68;102041.88;5035542;28;20435;-72
2022/10/08 11:13:21;;;;;;;5.45;1.50;;;;;;;21.70;42.31;102031.66;5034825;28;20042;-70
2022/10/08 11:16:00;;;;;;;4.60;0.98;;;;;;;21.72;41.83;102039.72;5039893;28;20033;-69
2022/10/08 11:18:50;;;;;;;5.88;1.10;;;;;;;21.76;41.98;102038.41;5054564;28;20049;-70
2022/10/08 11:21:38;;;;;;;4.65;1.10;;;;;;;21.83;42.08;102042.25;5054894;28;20045;-69
2022/10/08 11:24:15;;;;;;;5.18;0.90;;;;;;;21.87;42.01;102032.72;5053976;28;20094;-70
2022/10/08 11:27:00;;;;;;;4.30;1.20;;;;;;;21.93;41.88;102032.09;5041233;28;20454;-70
2022/10/08 11:29:49;;;;;;;4.78;1.10;;;;;;;22.03;41.92;102032.06;5033612;28;20045;-70
2022/10/08 11:32:18;;;;;;;4.47;1.10;;;;;;;22.14;41.78;102037.31;5033383;28;20096;-69
2022/10/08 11:34:52;;;;;;;4.32;0.88;;;;;;;22.16;41.40;102036.13;5033441;28;20047;-71
2022/10/08 11:37:38;;;;;;;4.03;1.73;;;;;;;22.08;40.95;102041.53;5033419;28;20618;-71
2022/10/08 11:40:20;;;;;;;5.03;1.10;;;;;;;22.02;41.13;102046.72;5033232;28;20045;-71
2022/10/08 11:43:04;;;;;;;5.70;1.15;;;;;;;22.01;41.22;102051.31;5033242;28;20068;-71
2022/10/08 11:45:39;;;;;;;4.45;1.20;;;;;;;22.04;41.30;102045.59;5032946;28;20045;-71
2022/10/08 11:48:23;;;;;;;2.83;0.98;;;;;;;22.08;41.68;102047.00;5033190;28;20099;-71